Wetterdaten: Woche 22.03.21 - 28.03.21 (KW12)
Datum Zeit Temp. A. Feuchte A. Luftdruck Regen Wind Richtung Taupunkt Windchill Windben
22.03.2021 00:00 2,8 C 81 % 1013,0 hPa 0,0 l/m 8,7 km/h N -0,2 C 0,6 C 22,5 km/h
22.03.2021 01:00 2,9 C 81 % 1013,2 hPa 0,0 l/m 7,9 km/h N -0,0 C 1,5 C 18,9 km/h
22.03.2021 02:00 2,9 C 81 % 1013,1 hPa 0,3 l/m 9,2 km/h N -0,0 C 0,4 C 19,7 km/h
22.03.2021 03:00 2,7 C 81 % 1013,3 hPa 0,0 l/m 6,5 km/h N -0,2 C 2,5 C 16,9 km/h
22.03.2021 04:00 2,4 C 80 % 1013,5 hPa 0,0 l/m 7,4 km/h N -0,7 C 1,4 C 20,1 km/h
22.03.2021 05:00 2,2 C 79 % 1014,0 hPa 0,0 l/m 5,6 km/h N -1,1 C 2,2 C 16,9 km/h
22.03.2021 06:00 2,0 C 78 % 1014,3 hPa 0,0 l/m 6,9 km/h N -1,5 C 1,5 C 20,1 km/h
22.03.2021 07:00 2,8 C 75 % 1014,9 hPa 0,0 l/m 10,5 km/h N -1,2 C -0,7 C 24,5 km/h
22.03.2021 08:00 3,5 C 71 % 1015,5 hPa 0,0 l/m 10,4 km/h N -1,2 C 0,2 C 24,9 km/h
22.03.2021 09:00 4,6 C 64 % 1016,0 hPa 0,0 l/m 8,6 km/h N -1,6 C 2,8 C 22,9 km/h
22.03.2021 10:00 5,1 C 59 % 1016,1 hPa 0,0 l/m 10,5 km/h N -2,3 C 1,9 C 24,5 km/h
22.03.2021 11:00 5,4 C 56 % 1016,3 hPa 0,0 l/m 9,7 km/h N -2,7 C 2,8 C 25,8 km/h
22.03.2021 12:00 6,1 C 52 % 1016,0 hPa 0,0 l/m 7,4 km/h N -3,0 C 5,3 C 22,9 km/h
22.03.2021 13:00 6,0 C 49 % 1015,8 hPa 0,0 l/m 6,6 km/h N -3,9 C 5,8 C 22,9 km/h
22.03.2021 14:00 6,8 C 48 % 1015,7 hPa 0,0 l/m 8,6 km/h N -3,5 C 5,1 C 29,4 km/h
22.03.2021 15:00 6,7 C 50 % 1016,0 hPa 0,0 l/m 9,0 km/h N -3,0 C 4,8 C 32,2 km/h
22.03.2021 16:00 4,9 C 62 % 1016,5 hPa 0,0 l/m 5,2 km/h N -1,8 C 4,7 C 22,5 km/h
22.03.2021 17:00 3,9 C 71 % 1017,5 hPa 0,0 l/m 7,9 km/h N -0,9 C 2,2 C 21,3 km/h
22.03.2021 18:00 3,3 C 74 % 1018,6 hPa 0,0 l/m 4,6 km/h N -0,9 C 3,3 C 15,7 km/h
22.03.2021 19:00 2,7 C 76 % 1019,6 hPa 0,0 l/m 1,4 km/h N -1,2 C 2,7 C 8,4 km/h
22.03.2021 20:00 2,7 C 74 % 1020,3 hPa 0,0 l/m 0,1 km/h N -1,6 C 2,7 C 3,6 km/h
22.03.2021 21:00 2,8 C 72 % 1020,9 hPa 0,0 l/m 0,0 km/h N -1,8 C 2,8 C 2,0 km/h
22.03.2021 22:00 2,9 C 71 % 1021,2 hPa 0,0 l/m 0,3 km/h N -1,9 C 2,9 C 4,4 km/h
22.03.2021 23:00 2,9 C 68 % 1021,5 hPa 0,0 l/m 0,2 km/h N -2,5 C 2,9 C 4,4 km/h
23.03.2021 00:00 3,4 C 65 % 1021,6 hPa 0,0 l/m 2,4 km/h N -2,7 C 3,4 C 12,9 km/h
23.03.2021 01:00 3,2 C 67 % 1021,8 hPa 0,0 l/m 1,8 km/h N -2,5 C 3,2 C 9,6 km/h
23.03.2021 02:00 3,1 C 70 % 1021,7 hPa 0,0 l/m 3,8 km/h N -1,8 C 3,1 C 16,5 km/h
23.03.2021 03:00 3,3 C 72 % 1021,6 hPa 0,0 l/m 4,6 km/h N -1,3 C 3,3 C 18,1 km/h
23.03.2021 04:00 3,5 C 72 % 1021,7 hPa 0,0 l/m 4,6 km/h N -1,1 C 3,5 C 15,3 km/h
23.03.2021 05:00 3,5 C 72 % 1021,8 hPa 0,0 l/m 4,2 km/h N -1,0 C 3,5 C 18,5 km/h
23.03.2021 06:00 3,6 C 73 % 1022,2 hPa 0,0 l/m 2,9 km/h N -0,8 C 3,6 C 13,7 km/h
23.03.2021 07:00 4,2 C 72 % 1022,8 hPa 0,0 l/m 5,8 km/h N -0,5 C 4,2 C 17,7 km/h
23.03.2021 08:00 5,0 C 69 % 1022,8 hPa 0,0 l/m 4,9 km/h N -0,1 C 5,0 C 18,1 km/h
23.03.2021 09:00 5,6 C 67 % 1023,0 hPa 0,0 l/m 5,7 km/h N -0,1 C 5,5 C 20,5 km/h
23.03.2021 10:00 6,4 C 65 % 1022,8 hPa 0,0 l/m 3,7 km/h N 0,4 C 6,4 C 15,7 km/h
23.03.2021 11:00 8,0 C 61 % 1022,1 hPa 0,0 l/m 5,6 km/h N 1,0 C 8,0 C 21,7 km/h
23.03.2021 12:00 7,3 C 64 % 1022,2 hPa 0,0 l/m 9,4 km/h N 0,9 C 5,1 C 24,1 km/h
23.03.2021 13:00 6,3 C 70 % 1022,4 hPa 0,0 l/m 8,4 km/h N 1,2 C 4,7 C 19,7 km/h
23.03.2021 14:00 6,0 C 73 % 1022,4 hPa 0,0 l/m 6,8 km/h N 1,6 C 5,4 C 16,9 km/h
23.03.2021 15:00 5,9 C 74 % 1022,4 hPa 0,0 l/m 8,0 km/h N 1,7 C 4,5 C 18,9 km/h
23.03.2021 16:00 5,8 C 75 % 1022,2 hPa 0,0 l/m 8,9 km/h N 1,7 C 3,8 C 20,5 km/h
23.03.2021 17:00 5,9 C 73 % 1022,3 hPa 0,0 l/m 8,4 km/h N 1,3 C 4,3 C 18,5 km/h
23.03.2021 18:00 5,8 C 73 % 1022,9 hPa 0,0 l/m 3,2 km/h N 1,3 C 5,8 C 12,1 km/h
23.03.2021 19:00 5,8 C 72 % 1023,2 hPa 0,0 l/m 2,2 km/h N 1,2 C 5,8 C 14,1 km/h
23.03.2021 20:00 5,6 C 76 % 1023,6 hPa 0,0 l/m 3,2 km/h N 1,6 C 5,6 C 15,3 km/h
23.03.2021 21:00 5,5 C 76 % 1023,8 hPa 0,0 l/m 2,9 km/h N 1,6 C 5,5 C 16,9 km/h
23.03.2021 22:00 5,3 C 75 % 1023,9 hPa 0,0 l/m 2,7 km/h N 1,3 C 5,3 C 16,1 km/h
23.03.2021 23:00 5,3 C 74 % 1024,0 hPa 0,0 l/m 2,7 km/h N 1,1 C 5,3 C 13,3 km/h
24.03.2021 00:00 4,9 C 75 % 1024,2 hPa 0,0 l/m 1,3 km/h N 0,7 C 4,9 C 11,3 km/h
24.03.2021 01:00 4,9 C 75 % 1024,4 hPa 0,0 l/m 2,1 km/h N 0,8 C 4,9 C 11,7 km/h
24.03.2021 02:00 5,2 C 74 % 1024,1 hPa 0,0 l/m 3,2 km/h N 0,9 C 5,2 C 14,1 km/h
24.03.2021 03:00 5,0 C 74 % 1024,2 hPa 0,0 l/m 0,9 km/h N 0,8 C 5,0 C 9,3 km/h
24.03.2021 04:00 4,9 C 74 % 1024,3 hPa 0,0 l/m 0,3 km/h N 0,7 C 4,9 C 5,6 km/h
24.03.2021 05:00 4,8 C 75 % 1024,4 hPa 0,0 l/m 0,4 km/h N 0,8 C 4,8 C 5,6 km/h
24.03.2021 06:00 4,7 C 76 % 1024,8 hPa 0,0 l/m 0,8 km/h N 0,9 C 4,7 C 6,4 km/h
24.03.2021 07:00 4,9 C 77 % 1025,1 hPa 0,0 l/m 2,5 km/h N 1,1 C 4,9 C 12,1 km/h
24.03.2021 08:00 5,6 C 74 % 1025,4 hPa 0,0 l/m 2,3 km/h N 1,4 C 5,6 C 10,9 km/h
24.03.2021 09:00 6,7 C 68 % 1025,3 hPa 0,0 l/m 5,4 km/h N 1,2 C 6,7 C 18,5 km/h
24.03.2021 10:00 7,0 C 66 % 1025,1 hPa 0,0 l/m 3,5 km/h N 0,9 C 7,0 C 17,3 km/h
24.03.2021 11:00 7,2 C 65 % 1024,7 hPa 0,0 l/m 4,4 km/h N 1,0 C 7,2 C 18,1 km/h
24.03.2021 12:00 7,6 C 63 % 1024,1 hPa 0,0 l/m 6,7 km/h N 1,0 C 6,9 C 20,1 km/h
24.03.2021 13:00 8,1 C 61 % 1023,7 hPa 0,0 l/m 6,8 km/h N 1,0 C 7,4 C 18,5 km/h
24.03.2021 14:00 8,6 C 60 % 1023,1 hPa 0,0 l/m 6,7 km/h N 1,1 C 8,1 C 17,7 km/h
24.03.2021 15:00 8,9 C 60 % 1022,7 hPa 0,0 l/m 4,3 km/h N 1,5 C 8,7 C 15,7 km/h
24.03.2021 16:00 8,9 C 60 % 1022,6 hPa 0,0 l/m 3,4 km/h N 1,6 C 8,9 C 15,7 km/h
24.03.2021 17:00 8,4 C 61 % 1022,8 hPa 0,0 l/m 1,8 km/h N 1,4 C 8,4 C 10,1 km/h
24.03.2021 18:00 7,4 C 64 % 1023,2 hPa 0,0 l/m 0,1 km/h N 0,9 C 7,4 C 1,2 km/h
24.03.2021 19:00 5,4 C 67 % 1023,8 hPa 0,0 l/m 0,0 km/h N -0,3 C 5,4 C 0,0 km/h
24.03.2021 20:00 3,2 C 71 % 1024,1 hPa 0,0 l/m 0,0 km/h N -1,6 C 3,2 C 0,0 km/h
24.03.2021 21:00 1,6 C 76 % 1024,1 hPa 0,0 l/m 0,0 km/h N -2,2 C 1,6 C 0,0 km/h
24.03.2021 22:00 1,1 C 80 % 1024,0 hPa 0,0 l/m 0,0 km/h N -2,0 C 1,1 C 0,0 km/h
24.03.2021 23:00 0,6 C 81 % 1023,9 hPa 0,0 l/m 0,0 km/h N -2,2 C 0,6 C 0,0 km/h
25.03.2021 00:00 0,7 C 82 % 1023,7 hPa 0,0 l/m 0,0 km/h N -2,0 C 0,7 C 0,0 km/h
25.03.2021 01:00 0,5 C 82 % 1023,3 hPa 0,0 l/m 0,0 km/h N -2,2 C 0,5 C 0,0 km/h
25.03.2021 02:00 0,4 C 82 % 1023,0 hPa 0,0 l/m 0,0 km/h N -2,3 C 0,4 C 0,0 km/h
25.03.2021 03:00 0,4 C 82 % 1022,7 hPa 0,0 l/m 0,0 km/h N -2,3 C 0,4 C 0,0 km/h
25.03.2021 04:00 0,1 C 82 % 1022,5 hPa 0,0 l/m 0,0 km/h N -2,6 C 0,1 C 0,0 km/h
25.03.2021 05:00 -0,7 C 82 % 1022,6 hPa 0,0 l/m 0,0 km/h N -3,4 C -0,7 C 0,0 km/h
25.03.2021 06:00 -1,1 C 82 % 1022,8 hPa 0,0 l/m 0,0 km/h N -3,7 C -1,1 C 0,0 km/h
25.03.2021 07:00 -0,0 C 82 % 1023,0 hPa 0,0 l/m 0,0 km/h N -2,7 C -0,0 C 0,0 km/h
25.03.2021 08:00 3,1 C 82 % 1023,0 hPa 0,0 l/m 0,0 km/h N 0,3 C 3,1 C 0,0 km/h
25.03.2021 09:00 6,5 C 80 % 1023,0 hPa 0,0 l/m 0,0 km/h N 3,3 C 6,5 C 0,0 km/h
25.03.2021 10:00 11,1 C 64 % 1022,4 hPa 0,0 l/m 0,1 km/h N 4,5 C 11,1 C 2,0 km/h
25.03.2021 11:00 13,6 C 56 % 1021,7 hPa 0,0 l/m 0,8 km/h N 5,0 C 13,6 C 4,8 km/h
25.03.2021 12:00 14,6 C 51 % 1021,0 hPa 0,0 l/m 4,9 km/h N 4,5 C 14,5 C 15,7 km/h
25.03.2021 13:00 15,3 C 48 % 1020,2 hPa 0,0 l/m 5,5 km/h N 4,3 C 15,3 C 17,3 km/h
25.03.2021 14:00 15,7 C 46 % 1019,5 hPa 0,0 l/m 4,3 km/h N 4,1 C 15,7 C 13,7 km/h
25.03.2021 15:00 16,0 C 45 % 1019,1 hPa 0,0 l/m 3,5 km/h N 4,0 C 16,0 C 10,9 km/h
25.03.2021 16:00 16,1 C 44 % 1018,8 hPa 0,0 l/m 2,2 km/h N 3,8 C 16,1 C 12,5 km/h
25.03.2021 17:00 15,7 C 43 % 1018,8 hPa 0,0 l/m 0,3 km/h N 3,3 C 15,7 C 3,2 km/h
25.03.2021 18:00 13,7 C 48 % 1019,4 hPa 0,0 l/m 0,0 km/h N 2,8 C 13,7 C 0,0 km/h
25.03.2021 19:00 10,1 C 57 % 1020,3 hPa 0,0 l/m 0,0 km/h N 1,8 C 10,1 C 0,0 km/h
25.03.2021 20:00 7,3 C 66 % 1020,8 hPa 0,0 l/m 0,0 km/h N 1,3 C 7,3 C 0,0 km/h
25.03.2021 21:00 5,7 C 71 % 1020,9 hPa 0,0 l/m 0,0 km/h N 0,9 C 5,7 C 0,0 km/h
25.03.2021 22:00 5,3 C 74 % 1021,0 hPa 0,0 l/m 0,0 km/h N 0,9 C 5,3 C 0,0 km/h
25.03.2021 23:00 4,7 C 76 % 1021,0 hPa 0,0 l/m 0,0 km/h N 0,8 C 4,7 C 0,8 km/h
26.03.2021 00:00 4,7 C 76 % 1021,1 hPa 0,0 l/m 0,0 km/h N 0,8 C 4,7 C 0,0 km/h
26.03.2021 01:00 3,3 C 77 % 1021,3 hPa 0,0 l/m 0,0 km/h N -0,3 C 3,3 C 0,0 km/h
26.03.2021 02:00 3,0 C 80 % 1021,3 hPa 0,0 l/m 0,0 km/h N -0,1 C 3,0 C 0,0 km/h
26.03.2021 03:00 2,8 C 80 % 1021,3 hPa 0,0 l/m 0,0 km/h N -0,3 C 2,8 C 0,0 km/h
26.03.2021 04:00 2,3 C 81 % 1021,8 hPa 0,0 l/m 0,0 km/h N -0,7 C 2,3 C 0,0 km/h
26.03.2021 05:00 1,5 C 81 % 1022,1 hPa 0,0 l/m 0,0 km/h N -1,4 C 1,5 C 0,0 km/h
26.03.2021 06:00 0,9 C 82 % 1022,6 hPa 0,0 l/m 0,0 km/h N -1,9 C 0,9 C 0,0 km/h
26.03.2021 07:00 2,1 C 82 % 1023,1 hPa 0,0 l/m 0,0 km/h N -0,7 C 2,1 C 0,0 km/h
26.03.2021 08:00 5,4 C 81 % 1023,1 hPa 0,0 l/m 0,0 km/h N 2,4 C 5,4 C 0,0 km/h
26.03.2021 09:00 9,4 C 77 % 1023,1 hPa 0,0 l/m 0,0 km/h N 5,5 C 9,4 C 1,2 km/h
26.03.2021 10:00 14,1 C 61 % 1022,9 hPa 0,0 l/m 0,0 km/h N 6,7 C 14,1 C 1,6 km/h
26.03.2021 11:00 17,5 C 49 % 1022,4 hPa 0,0 l/m 0,3 km/h N 6,5 C 17,5 C 4,4 km/h
26.03.2021 12:00 19,0 C 44 % 1021,7 hPa 0,0 l/m 0,1 km/h N 6,5 C 19,0 C 3,2 km/h
26.03.2021 13:00 19,8 C 42 % 1021,0 hPa 0,0 l/m 0,2 km/h N 6,5 C 19,8 C 4,0 km/h
26.03.2021 14:00 19,6 C 38 % 1020,2 hPa 0,0 l/m 0,4 km/h N 5,0 C 19,6 C 4,0 km/h
26.03.2021 15:00 18,6 C 38 % 1019,7 hPa 0,0 l/m 0,5 km/h N 4,1 C 18,6 C 5,6 km/h
26.03.2021 16:00 18,0 C 39 % 1019,4 hPa 0,0 l/m 0,6 km/h N 3,8 C 18,0 C 4,8 km/h
26.03.2021 17:00 17,0 C 40 % 1019,3 hPa 0,0 l/m 0,2 km/h N 3,4 C 17,0 C 2,8 km/h
26.03.2021 18:00 15,4 C 44 % 1019,3 hPa 0,0 l/m 0,0 km/h N 3,1 C 15,4 C 0,8 km/h
26.03.2021 19:00 12,5 C 50 % 1019,6 hPa 0,0 l/m 0,0 km/h N 2,4 C 12,5 C 0,0 km/h
26.03.2021 20:00 10,0 C 58 % 1019,6 hPa 0,0 l/m 0,0 km/h N 2,0 C 10,0 C 0,0 km/h
26.03.2021 21:00 9,0 C 60 % 1019,4 hPa 0,0 l/m 0,0 km/h N 1,7 C 9,0 C 0,0 km/h
26.03.2021 22:00 7,1 C 66 % 1018,9 hPa 0,0 l/m 0,0 km/h N 1,2 C 7,1 C 0,0 km/h
26.03.2021 23:00 6,4 C 70 % 1018,6 hPa 0,0 l/m 0,0 km/h N 1,3 C 6,4 C 0,0 km/h
27.03.2021 00:00 5,7 C 71 % 1018,2 hPa 0,0 l/m 0,0 km/h N 0,8 C 5,7 C 0,0 km/h
27.03.2021 01:00 4,5 C 74 % 1017,9 hPa 0,0 l/m 0,0 km/h N 0,3 C 4,5 C 0,0 km/h
27.03.2021 02:00 3,8 C 77 % 1017,8 hPa 0,0 l/m 0,0 km/h N 0,0 C 3,8 C 0,0 km/h
27.03.2021 03:00 2,9 C 78 % 1017,7 hPa 0,0 l/m 0,0 km/h N -0,5 C 2,9 C 0,0 km/h
27.03.2021 04:00 1,9 C 79 % 1018,1 hPa 0,0 l/m 0,0 km/h N -1,3 C 1,9 C 0,0 km/h
27.03.2021 05:00 1,3 C 81 % 1018,1 hPa 0,0 l/m 0,0 km/h N -1,7 C 1,3 C 0,0 km/h
27.03.2021 06:00 1,0 C 82 % 1018,5 hPa 0,0 l/m 0,0 km/h N -1,7 C 1,0 C 0,0 km/h
27.03.2021 07:00 2,4 C 82 % 1018,8 hPa 0,0 l/m 0,0 km/h N -0,4 C 2,4 C 0,0 km/h
27.03.2021 08:00 5,6 C 81 % 1018,7 hPa 0,0 l/m 0,2 km/h N 2,6 C 5,6 C 1,2 km/h
27.03.2021 09:00 9,3 C 71 % 1019,1 hPa 0,0 l/m 0,6 km/h N 4,3 C 9,3 C 5,2 km/h
27.03.2021 10:00 13,0 C 60 % 1019,5 hPa 0,0 l/m 0,5 km/h N 5,3 C 13,0 C 5,6 km/h
27.03.2021 11:00 16,4 C 51 % 1019,5 hPa 0,0 l/m 1,9 km/h N 6,3 C 16,4 C 10,4 km/h
27.03.2021 12:00 17,8 C 49 % 1019,9 hPa 0,0 l/m 7,5 km/h N 6,8 C 17,1 C 24,9 km/h
27.03.2021 13:00 17,0 C 51 % 1020,6 hPa 0,0 l/m 7,2 km/h N 6,9 C 16,6 C 26,5 km/h
27.03.2021 14:00 15,3 C 55 % 1021,7 hPa 0,0 l/m 8,7 km/h N 6,3 C 14,2 C 29,4 km/h
27.03.2021 15:00 13,2 C 54 % 1022,7 hPa 0,0 l/m 4,4 km/h N 4,1 C 13,3 C 20,9 km/h
27.03.2021 16:00 12,1 C 55 % 1023,3 hPa 0,0 l/m 2,2 km/h N 3,3 C 12,1 C 15,7 km/h
27.03.2021 17:00 11,1 C 59 % 1024,0 hPa 0,0 l/m 3,4 km/h N 3,3 C 11,1 C 20,1 km/h
27.03.2021 18:00 10,7 C 59 % 1024,8 hPa 0,0 l/m 4,1 km/h N 3,1 C 10,7 C 23,3 km/h
27.03.2021 19:00 10,4 C 61 % 1025,9 hPa 0,0 l/m 2,5 km/h N 3,1 C 10,4 C 16,5 km/h
27.03.2021 20:00 10,3 C 60 % 1026,3 hPa 0,0 l/m 2,3 km/h N 2,9 C 10,3 C 13,3 km/h
27.03.2021 21:00 9,9 C 61 % 1026,4 hPa 0,0 l/m 2,5 km/h N 2,7 C 9,9 C 19,7 km/h
27.03.2021 22:00 9,7 C 60 % 1026,7 hPa 0,0 l/m 3,0 km/h N 2,3 C 9,7 C 17,7 km/h
27.03.2021 23:00 9,6 C 59 % 1027,0 hPa 0,0 l/m 4,4 km/h N 1,9 C 9,2 C 20,9 km/h
28.03.2021 00:00 10,1 C 52 % 1027,7 hPa 0,0 l/m 10,5 km/h N 0,6 C 7,5 C 33,4 km/h
28.03.2021 01:00 9,8 C 55 % 1029,1 hPa 0,0 l/m 2,8 km/h N 1,1 C 9,8 C 20,5 km/h
28.03.2021 03:00 8,5 C 57 % 1029,6 hPa 0,0 l/m 1,3 km/h N 0,5 C 8,5 C 11,7 km/h
28.03.2021 04:00 7,6 C 60 % 1030,2 hPa 0,0 l/m 1,2 km/h N 0,4 C 7,6 C 12,9 km/h
28.03.2021 05:00 6,8 C 62 % 1030,7 hPa 0,0 l/m 0,8 km/h N -0,0 C 6,8 C 6,4 km/h
28.03.2021 06:00 6,2 C 64 % 1031,1 hPa 0,0 l/m 0,0 km/h N -0,2 C 6,2 C 2,4 km/h
28.03.2021 07:00 5,9 C 65 % 1031,6 hPa 0,0 l/m 0,0 km/h N -0,2 C 5,9 C 0,4 km/h
28.03.2021 08:00 6,9 C 64 % 1032,1 hPa 0,0 l/m 0,3 km/h N 0,5 C 6,9 C 3,6 km/h
28.03.2021 09:00 8,1 C 60 % 1032,4 hPa 0,0 l/m 1,0 km/h N 0,8 C 8,1 C 8,0 km/h
28.03.2021 10:00 9,4 C 57 % 1032,5 hPa 0,0 l/m 2,8 km/h N 1,3 C 9,4 C 12,5 km/h
28.03.2021 11:00 11,5 C 51 % 1032,1 hPa 0,0 l/m 3,5 km/h N 1,8 C 11,5 C 15,3 km/h
28.03.2021 12:00 12,2 C 47 % 1031,6 hPa 0,0 l/m 3,3 km/h N 1,2 C 12,2 C 16,1 km/h
28.03.2021 13:00 12,9 C 43 % 1031,1 hPa 0,0 l/m 3,3 km/h N 0,5 C 12,9 C 14,9 km/h
28.03.2021 14:00 13,9 C 42 % 1030,5 hPa 0,0 l/m 4,7 km/h N 1,0 C 13,9 C 20,5 km/h
28.03.2021 15:00 13,9 C 42 % 1030,3 hPa 0,0 l/m 4,8 km/h N 1,0 C 13,9 C 18,9 km/h
28.03.2021 16:00 14,1 C 42 % 1029,9 hPa 0,0 l/m 2,1 km/h N 1,2 C 14,1 C 12,5 km/h
28.03.2021 17:00 14,3 C 43 % 1029,9 hPa 0,0 l/m 0,5 km/h N 1,8 C 14,3 C 7,2 km/h
28.03.2021 18:00 13,7 C 43 % 1029,9 hPa 0,0 l/m 0,4 km/h N 1,2 C 13,7 C 4,8 km/h
28.03.2021 19:00 11,7 C 51 % 1030,1 hPa 0,0 l/m 0,0 km/h N 1,8 C 11,7 C 0,0 km/h
28.03.2021 20:00 8,9 C 60 % 1030,5 hPa 0,0 l/m 0,0 km/h N 1,5 C 8,9 C 0,0 km/h
28.03.2021 21:00 6,6 C 66 % 1030,7 hPa 0,0 l/m 0,0 km/h N 0,6 C 6,6 C 0,0 km/h
28.03.2021 22:00 5,4 C 69 % 1030,8 hPa 0,0 l/m 0,0 km/h N 0,2 C 5,4 C 0,8 km/h
28.03.2021 23:00 5,8 C 66 % 1031,2 hPa 0,0 l/m 0,0 km/h N -0,2 C 5,8 C 0,0 km/h
Min-Datum _ 25.03.21 26.03.21 22.03.21 - 22.03.21 - 22.03.21 22.03.21 22.03.21
_ Min-Zeit 06:15 14:15 00:30 - 20:30 - 12:45 07:30 20:30
Minimum _ -1,4 C 37 % 1012,9 hPa - 0,0 km/h - -4,9 C -1,5 C 0,0 km/h
Max-Datum _ 26.03.21 24.03.21 28.03.21 22.03.21 27.03.21 - 27.03.21 26.03.21 22.03.21
_ Max-Zeit 14:00 23:45 10:15 02:30 14:45 - 12:45 14:00 15:45
Maximum _ 20,1 C 82 % 1032,6 hPa 0,3 l/m 14,5 km/h
N
- 7,4 C 20,1 C 38,6 km/h
N
Durchschnitt _ 7,2 C 66 % 1022,4 hPa #0,3 l/m 2,7 km/h N 0,8 C 6,9 C 10,2 km/h